KPEZ

Pleasanton Municipal Airport

Pleasanton, Texas, USA
METAR KPEZ 210515Z AUTO 16008KT 10SM CLR 28/21 A3002 RMK AO2 T02810205
Observed Flight Rules
Aug-21 @ 05:15 UTC (9 hours ago) Visual Flight Rules
Wind Visibility Clouds
160° at 8 knots 10 miles
  • Clear skies
Temperatures Readings
Current 28°C / 82°F
Dewpoint 21°C / 70°F
Humidity 66%
Altimeter 30.02" Hg
Pressure 1017 hPa
Elevation 132
METAR KPEZ 210515Z AUTO 16008KT 10SM CLR 28/21 A3002 RMK AO2 T02810205
Observed Flight Rules
Aug-21 @ 05:15 UTC
(9 hours ago)
VFR
Wind Visibility
160° at 8 knots 10 miles
Clouds
  • Clear skies
Temperature Dewpoint
28°C / 82°F 21°C / 70°F
Humidity Altimeter Pressure
66% 30.02" Hg 1017 hPa